Time;durP1;ratioP1;P1;durP2;ratioP2;P2;SDS_P1;SDS_P2;PMS_P1;PMS_P2;Temp;Humidity;BMP_temperature;BMP_pressure;BME280_temperature;BME280_humidity;BME280_pressure;Samples;Min_cycle;Max_cycle;Signal;HPM_P1;HPM_P2
2023/10/05 00:02:27;;;;;;;9.02;3.80;;;;;;;;;;10324677;28;20062;-63
2023/10/05 00:07:28;;;;;;;4.85;3.35;;;;;;;;;;10324458;28;20374;-63
2023/10/05 00:12:30;;;;;;;4.80;3.80;;;;;;;;;;10324039;28;20050;-63
2023/10/05 00:17:32;;;;;;;5.35;3.92;;;;;;;;;;10324692;28;20022;-63
2023/10/05 00:22:33;;;;;;;5.32;3.25;;;;;;;;;;10323959;28;20037;-63
2023/10/05 00:27:35;;;;;;;6.30;3.58;;;;;;;;;;10324434;28;20038;-62
2023/10/05 00:32:39;;;;;;;5.50;3.63;;;;;;;;;;10324025;28;20065;-62
2023/10/05 00:37:42;;;;;;;5.57;3.38;;;;;;;;;;10324287;28;20077;-62
2023/10/05 00:42:43;;;;;;;4.05;3.05;;;;;;;;;;10323236;28;20041;-62
2023/10/05 00:47:44;;;;;;;6.70;3.67;;;;;;;;;;10322688;28;20031;-63
2023/10/05 00:52:51;;;;;;;3.53;3.10;;;;;;;;;;10322656;28;20049;-61
2023/10/05 00:57:54;;;;;;;5.05;3.15;;;;;;;;;;10322097;28;20085;-60
2023/10/05 01:03:21;;;;;;;4.22;3.17;;;;;;;;;;10322730;28;20030;-60
2023/10/05 01:08:23;;;;;;;3.35;2.80;;;;;;;;;;10321227;28;20049;-61
2023/10/05 01:13:28;;;;;;;6.13;2.78;;;;;;;;;;10321027;28;20082;-60
2023/10/05 01:18:31;;;;;;;3.83;2.90;;;;;;;;;;10322885;28;20046;-61
2023/10/05 01:23:38;;;;;;;4.68;3.35;;;;;;;;;;10322184;28;20030;-60
2023/10/05 01:28:42;;;;;;;7.03;3.33;;;;;;;;;;10322085;28;20029;-63
2023/10/05 01:33:43;;;;;;;4.38;3.05;;;;;;;;;;10321344;28;20030;-63
2023/10/05 01:38:45;;;;;;;5.88;3.20;;;;;;;;;;10321833;28;20045;-63
2023/10/05 01:43:46;;;;;;;5.60;2.97;;;;;;;;;;10321080;28;20380;-63
2023/10/05 01:48:47;;;;;;;4.28;2.83;;;;;;;;;;10320965;28;20274;-63
2023/10/05 01:53:51;;;;;;;3.33;3.00;;;;;;;;;;10321430;28;20289;-63
2023/10/05 01:58:54;;;;;;;5.20;3.03;;;;;;;;;;10320603;28;20522;-63
2023/10/05 02:03:57;;;;;;;3.83;2.83;;;;;;;;;;10320578;28;20486;-63
2023/10/05 02:08:57;;;;;;;3.80;2.83;;;;;;;;;;10320451;28;20109;-63
2023/10/05 02:14:01;;;;;;;5.00;3.40;;;;;;;;;;10321062;28;20371;-63
2023/10/05 02:19:06;;;;;;;4.28;3.17;;;;;;;;;;10320546;28;20026;-63
2023/10/05 02:24:15;;;;;;;3.55;2.95;;;;;;;;;;10322164;28;20066;-62
2023/10/05 02:29:16;;;;;;;5.40;3.05;;;;;;;;;;10328699;28;20468;-62
2023/10/05 02:34:20;;;;;;;3.03;2.78;;;;;;;;;;10328189;28;20037;-62
2023/10/05 02:39:22;;;;;;;4.55;3.28;;;;;;;;;;10328509;28;20034;-62
2023/10/05 02:44:31;;;;;;;3.78;2.80;;;;;;;;;;10328102;28;20109;-63
2023/10/05 02:49:31;;;;;;;9.10;3.20;;;;;;;;;;10328191;28;20034;-62
2023/10/05 02:54:32;;;;;;;4.50;3.25;;;;;;;;;;10328100;28;20462;-63
2023/10/05 02:59:34;;;;;;;4.30;3.20;;;;;;;;;;10327494;28;20544;-63
2023/10/05 03:05:17;;;;;;;3.45;2.88;;;;;;;;;;10327265;28;20559;-62
2023/10/05 03:09:59;;;;;;;4.47;2.95;;;;;;;;;;10321459;28;20042;-62
2023/10/05 03:15:05;;;;;;;3.10;2.80;;;;;;;;;;10327509;28;20030;-62
2023/10/05 03:20:15;;;;;;;3.85;3.10;;;;;;;;;;10327300;28;20027;-63
2023/10/05 03:25:16;;;;;;;4.55;2.90;;;;;;;;;;10326948;28;20470;-63
2023/10/05 03:30:17;;;;;;;4.43;3.17;;;;;;;;;;10326309;28;20022;-63
2023/10/05 03:35:24;;;;;;;5.43;3.08;;;;;;;;;;10325661;28;20030;-63
2023/10/05 03:40:27;;;;;;;4.38;2.88;;;;;;;;;;10326265;28;20490;-62
2023/10/05 03:45:28;;;;;;;5.32;2.90;;;;;;;;;;10325967;28;20390;-63
2023/10/05 03:50:29;;;;;;;4.20;3.17;;;;;;;;;;10325705;28;20034;-63
2023/10/05 03:55:32;;;;;;;4.20;2.88;;;;;;;;;;10326269;28;20026;-63
2023/10/05 04:00:34;;;;;;;6.47;3.35;;;;;;;;;;10325911;28;20113;-63
2023/10/05 04:05:39;;;;;;;5.28;3.30;;;;;;;;;;10325236;28;20533;-63
2023/10/05 04:10:46;;;;;;;4.28;2.83;;;;;;;;;;10325334;28;20062;-63
2023/10/05 04:15:46;;;;;;;4.05;2.95;;;;;;;;;;10324939;28;20414;-62
2023/10/05 04:20:47;;;;;;;7.57;3.00;;;;;;;;;;10324513;28;20042;-62
2023/10/05 04:25:51;;;;;;;5.30;3.30;;;;;;;;;;10324717;28;20034;-62
2023/10/05 04:30:52;;;;;;;4.93;3.30;;;;;;;;;;10324341;28;20041;-62
2023/10/05 04:35:53;;;;;;;7.22;3.53;;;;;;;;;;10324217;28;20042;-63
2023/10/05 04:40:58;;;;;;;6.45;3.40;;;;;;;;;;10324658;28;20070;-64
2023/10/05 04:46:05;;;;;;;3.72;3.38;;;;;;;;;;10323788;28;20118;-64
2023/10/05 04:51:05;;;;;;;5.28;3.75;;;;;;;;;;10323952;28;20109;-64
2023/10/05 04:56:28;;;;;;;5.35;3.40;;;;;;;;;;10323266;28;20486;-64
2023/10/05 05:01:32;;;;;;;5.30;3.53;;;;;;;;;;10323056;28;20034;-64
2023/10/05 05:06:32;;;;;;;5.00;3.75;;;;;;;;;;10323284;28;20093;-63
2023/10/05 05:11:34;;;;;;;6.45;3.70;;;;;;;;;;10320972;28;20046;-63
2023/10/05 05:16:35;;;;;;;9.90;4.20;;;;;;;;;;10321900;28;20113;-63
2023/10/05 05:21:36;;;;;;;13.10;4.32;;;;;;;;;;10321530;28;20482;-63
2023/10/05 05:26:36;;;;;;;6.03;3.95;;;;;;;;;;10322030;28;20034;-63
2023/10/05 05:31:37;;;;;;;8.95;3.90;;;;;;;;;;10321719;28;20509;-62
2023/10/05 05:36:40;;;;;;;5.53;4.00;;;;;;;;;;10321704;28;20445;-62
2023/10/05 05:41:41;;;;;;;7.00;4.25;;;;;;;;;;10321155;28;20029;-62
2023/10/05 05:46:43;;;;;;;7.07;4.22;;;;;;;;;;10321191;28;20379;-63
2023/10/05 05:51:44;;;;;;;6.43;4.25;;;;;;;;;;10320654;28;20031;-63
2023/10/05 05:56:45;;;;;;;7.85;4.60;;;;;;;;;;10320882;28;20022;-63
2023/10/05 06:01:46;;;;;;;10.23;4.75;;;;;;;;;;10318699;28;20069;-62
2023/10/05 06:06:48;;;;;;;8.15;4.55;;;;;;;;;;10320559;28;20031;-65
2023/10/05 06:11:49;;;;;;;14.25;4.70;;;;;;;;;;10320140;28;20514;-65
2023/10/05 06:16:51;;;;;;;11.85;3.97;;;;;;;;;;10319131;28;20238;-65
2023/10/05 06:21:54;;;;;;;6.20;4.35;;;;;;;;;;10319824;28;20505;-65
2023/10/05 06:26:55;;;;;;;9.15;3.97;;;;;;;;;;10319742;28;20036;-64
2023/10/05 06:31:55;;;;;;;11.45;4.07;;;;;;;;;;10320719;28;20437;-64
2023/10/05 06:36:56;;;;;;;12.32;4.22;;;;;;;;;;10320656;28;20374;-64
2023/10/05 06:41:57;;;;;;;11.13;3.38;;;;;;;;;;10320032;28;20470;-64
2023/10/05 06:46:59;;;;;;;9.63;4.68;;;;;;;;;;10318579;28;20459;-64
2023/10/05 06:52:01;;;;;;;12.15;3.53;;;;;;;;;;10319565;28;20030;-64
2023/10/05 06:57:02;;;;;;;12.10;3.80;;;;;;;;;;10319065;28;20031;-64
2023/10/05 07:02:03;;;;;;;7.28;3.88;;;;;;;;;;10320220;28;20059;-64
2023/10/05 07:07:03;;;;;;;11.93;3.88;;;;;;;;;;10319398;28;20027;-65
2023/10/05 07:12:04;;;;;;;12.68;4.07;;;;;;;;;;10321644;28;20054;-63
2023/10/05 07:17:05;;;;;;;9.07;3.80;;;;;;;;;;10325817;28;20026;-64
2023/10/05 07:22:05;;;;;;;8.95;4.00;;;;;;;;;;10326392;28;20032;-64
2023/10/05 07:27:06;;;;;;;8.55;3.63;;;;;;;;;;10325677;28;20030;-64
2023/10/05 07:32:07;;;;;;;5.30;3.00;;;;;;;;;;10324569;28;20406;-63
2023/10/05 07:37:11;;;;;;;8.25;3.38;;;;;;;;;;10325979;28;20376;-64
2023/10/05 07:42:11;;;;;;;5.93;3.80;;;;;;;;;;10326003;28;20033;-64
2023/10/05 07:47:12;;;;;;;8.52;3.85;;;;;;;;;;10326343;28;20041;-62
2023/10/05 07:52:14;;;;;;;10.13;3.42;;;;;;;;;;10325363;28;20474;-64
2023/10/05 07:57:15;;;;;;;7.35;3.65;;;;;;;;;;10325180;28;20041;-64
2023/10/05 08:02:15;;;;;;;5.85;3.67;;;;;;;;;;10324810;28;20034;-64
2023/10/05 08:07:16;;;;;;;10.70;3.60;;;;;;;;;;10325350;28;20150;-65
2023/10/05 08:12:16;;;;;;;9.50;3.42;;;;;;;;;;10324417;28;20335;-62
2023/10/05 08:17:17;;;;;;;7.95;3.20;;;;;;;;;;10324874;28;20030;-63
2023/10/05 08:22:18;;;;;;;8.20;3.28;;;;;;;;;;10325146;28;20036;-65
2023/10/05 08:27:20;;;;;;;6.93;3.25;;;;;;;;;;10325720;28;20045;-65
2023/10/05 08:32:25;;;;;;;6.82;3.25;;;;;;;;;;10323968;28;20474;-63
2023/10/05 08:37:30;;;;;;;6.30;3.30;;;;;;;;;;10325159;28;20072;-64
2023/10/05 08:42:34;;;;;;;8.87;3.13;;;;;;;;;;10324858;28;20045;-66
2023/10/05 08:47:36;;;;;;;8.73;3.83;;;;;;;;;;10323455;28;20952;-64
2023/10/05 08:52:40;;;;;;;5.32;2.67;;;;;;;;;;10321620;28;20045;-64
2023/10/05 08:57:42;;;;;;;7.25;2.97;;;;;;;;;;10322563;28;20489;-64
2023/10/05 09:02:42;;;;;;;4.93;3.03;;;;;;;;;;10322142;28;20101;-64
2023/10/05 09:07:55;;;;;;;7.40;3.03;;;;;;;;;;10323278;28;20029;-65
2023/10/05 09:13:07;;;;;;;10.07;3.30;;;;;;;;;;10322945;28;20240;-65
2023/10/05 09:23:20;;;;;;;4.63;2.85;;;;;;;;;;10322168;28;20066;-65
2023/10/05 09:28:35;;;;;;;5.18;3.03;;;;;;;;;;10322279;28;20029;-65
2023/10/05 09:33:49;;;;;;;10.23;3.25;;;;;;;;;;10322033;28;20035;-64
2023/10/05 09:38:51;;;;;;;11.65;3.00;;;;;;;;;;10320604;28;20524;-62
2023/10/05 09:44:00;;;;;;;10.95;3.60;;;;;;;;;;10320307;28;20038;-62
2023/10/05 09:49:05;;;;;;;6.93;3.40;;;;;;;;;;10321205;28;20034;-63
2023/10/05 09:54:10;;;;;;;7.43;3.28;;;;;;;;;;10321936;28;20121;-62
2023/10/05 09:59:15;;;;;;;5.43;3.30;;;;;;;;;;10319295;28;20026;-62
2023/10/05 10:04:36;;;;;;;6.15;3.10;;;;;;;;;;10321257;28;20237;-62
2023/10/05 10:09:39;;;;;;;5.28;3.33;;;;;;;;;;10319815;28;20100;-62
2023/10/05 10:14:43;;;;;;;8.18;2.95;;;;;;;;;;10320344;28;20253;-65
2023/10/05 10:19:45;;;;;;;4.63;3.00;;;;;;;;;;10319298;28;20449;-63
2023/10/05 10:24:46;;;;;;;6.05;2.80;;;;;;;;;;10319595;28;20478;-63
2023/10/05 10:29:53;;;;;;;5.97;3.67;;;;;;;;;;10320031;28;20027;-62
2023/10/05 10:34:55;;;;;;;17.42;3.75;;;;;;;;;;10320726;28;20062;-62
2023/10/05 10:39:57;;;;;;;5.47;3.00;;;;;;;;;;10320993;28;20057;-64
2023/10/05 10:44:57;;;;;;;5.60;3.20;;;;;;;;;;10321925;28;20486;-64
2023/10/05 10:50:16;;;;;;;11.82;3.90;;;;;;;;;;10326710;28;20030;-62
2023/10/05 10:55:20;;;;;;;6.15;3.30;;;;;;;;;;10327752;28;20471;-64
2023/10/05 11:06:00;;;;;;;8.15;3.40;;;;;;;;;;10241073;29;20123;-61
2023/10/05 11:11:09;;;;;;;5.28;3.83;;;;;;;;;;10240759;29;20051;-62
2023/10/05 11:16:11;;;;;;;4.70;3.30;;;;;;;;;;10241214;29;20042;-62
2023/10/05 11:21:24;;;;;;;10.07;3.50;;;;;;;;;;10240895;29;20105;-61
2023/10/05 11:26:28;;;;;;;5.15;3.50;;;;;;;;;;10240804;28;20063;-62
2023/10/05 11:31:33;;;;;;;16.60;3.47;;;;;;;;;;10240319;28;20039;-61
2023/10/05 11:36:39;;;;;;;12.68;4.18;;;;;;;;;;10247848;28;20050;-64
2023/10/05 11:41:41;;;;;;;11.50;3.30;;;;;;;;;;10326585;28;20311;-65
2023/10/05 11:47:07;;;;;;;7.03;3.58;;;;;;;;;;10326330;28;20026;-65
2023/10/05 11:52:11;;;;;;;6.20;2.80;;;;;;;;;;10324978;28;20048;-66
2023/10/05 11:57:12;;;;;;;7.88;3.15;;;;;;;;;;10325012;28;20026;-65
2023/10/05 12:02:13;;;;;;;6.78;3.13;;;;;;;;;;10323552;28;20398;-65
2023/10/05 12:07:13;;;;;;;6.75;2.95;;;;;;;;;;10325038;28;20027;-65
2023/10/05 12:12:14;;;;;;;3.90;3.20;;;;;;;;;;10324569;28;20108;-64
2023/10/05 12:17:17;;;;;;;5.85;3.05;;;;;;;;;;10324711;28;20478;-64
2023/10/05 12:22:17;;;;;;;7.90;3.22;;;;;;;;;;10324955;28;20023;-65
2023/10/05 12:27:22;;;;;;;6.63;3.00;;;;;;;;;;10324514;28;20034;-65
2023/10/05 12:32:24;;;;;;;13.57;3.53;;;;;;;;;;10324618;28;20077;-65
2023/10/05 12:37:25;;;;;;;5.47;3.33;;;;;;;;;;10324317;28;20027;-65
2023/10/05 12:42:25;;;;;;;4.85;3.40;;;;;;;;;;10324340;28;20022;-65
2023/10/05 12:47:28;;;;;;;5.97;3.47;;;;;;;;;;10324482;28;20455;-64
2023/10/05 12:52:29;;;;;;;5.38;3.55;;;;;;;;;;10323303;28;20475;-65
2023/10/05 12:57:30;;;;;;;4.25;3.53;;;;;;;;;;10323599;28;20026;-65
2023/10/05 13:02:31;;;;;;;5.18;3.58;;;;;;;;;;10322603;28;20026;-65
2023/10/05 13:07:32;;;;;;;7.47;3.72;;;;;;;;;;10322443;28;20414;-65
2023/10/05 13:12:35;;;;;;;6.38;3.47;;;;;;;;;;10322002;28;20113;-63
2023/10/05 13:17:38;;;;;;;7.22;3.80;;;;;;;;;;10321972;28;20085;-63
2023/10/05 13:22:44;;;;;;;4.00;3.10;;;;;;;;;;10321530;28;20494;-63
2023/10/05 13:27:46;;;;;;;7.18;3.10;;;;;;;;;;10321679;28;20046;-62
2023/10/05 13:32:47;;;;;;;7.20;3.50;;;;;;;;;;10320835;28;20026;-64
2023/10/05 13:37:48;;;;;;;4.18;3.47;;;;;;;;;;10321305;28;20041;-64
2023/10/05 13:42:52;;;;;;;6.53;3.85;;;;;;;;;;10322197;28;20035;-64
2023/10/05 13:47:52;;;;;;;5.97;3.40;;;;;;;;;;10321436;28;20022;-63
2023/10/05 13:52:53;;;;;;;5.97;3.22;;;;;;;;;;10321403;28;20022;-64
2023/10/05 13:57:54;;;;;;;6.72;3.03;;;;;;;;;;10320249;28;20030;-63
2023/10/05 14:02:57;;;;;;;5.03;3.38;;;;;;;;;;10321032;28;20029;-64
2023/10/05 14:07:58;;;;;;;9.23;3.25;;;;;;;;;;10319899;28;20054;-64
2023/10/05 14:12:59;;;;;;;4.70;3.03;;;;;;;;;;10319756;28;20086;-64
2023/10/05 14:18:00;;;;;;;4.15;3.05;;;;;;;;;;10320576;28;20046;-64
2023/10/05 14:23:02;;;;;;;7.93;3.20;;;;;;;;;;10326703;28;20030;-63
2023/10/05 14:28:05;;;;;;;3.40;2.78;;;;;;;;;;10327537;28;20030;-62
2023/10/05 14:33:07;;;;;;;4.53;2.83;;;;;;;;;;10329378;28;20030;-63
2023/10/05 14:38:10;;;;;;;4.07;2.42;;;;;;;;;;10327526;28;20030;-63
2023/10/05 14:43:20;;;;;;;4.25;3.08;;;;;;;;;;10327194;28;20026;-62
2023/10/05 14:48:29;;;;;;;19.05;3.03;;;;;;;;;;10328535;28;20022;-63
2023/10/05 14:53:31;;;;;;;4.75;2.78;;;;;;;;;;10328116;28;20042;-61
2023/10/05 14:58:32;;;;;;;3.13;2.60;;;;;;;;;;10327480;28;20092;-63
2023/10/05 15:03:33;;;;;;;4.28;2.97;;;;;;;;;;10326937;28;20030;-64
2023/10/05 15:08:36;;;;;;;4.35;2.92;;;;;;;;;;10327459;28;20023;-63
2023/10/05 15:13:39;;;;;;;4.78;2.78;;;;;;;;;;10326822;28;20066;-64
2023/10/05 15:18:41;;;;;;;6.28;3.42;;;;;;;;;;10325972;28;20206;-63
2023/10/05 15:23:41;;;;;;;6.05;3.05;;;;;;;;;;10325197;28;20037;-64
2023/10/05 15:28:42;;;;;;;4.70;3.05;;;;;;;;;;10325376;28;20030;-62
2023/10/05 15:33:42;;;;;;;8.20;3.65;;;;;;;;;;10323441;28;20150;-64
2023/10/05 15:38:43;;;;;;;7.13;3.45;;;;;;;;;;10326604;28;20030;-64
2023/10/05 15:44:07;;;;;;;6.25;3.30;;;;;;;;;;10326470;28;20037;-62
2023/10/05 15:49:08;;;;;;;3.95;3.20;;;;;;;;;;10240089;29;20083;-63
2023/10/05 15:54:09;;;;;;;9.10;3.72;;;;;;;;;;10240354;29;20130;-62
2023/10/05 15:59:09;;;;;;;9.15;3.47;;;;;;;;;;10238972;29;20483;-62
2023/10/05 16:04:10;;;;;;;8.90;3.47;;;;;;;;;;10238935;29;20066;-64
2023/10/05 16:09:15;;;;;;;10.82;4.60;;;;;;;;;;10232264;29;20039;-62
2023/10/05 16:14:16;;;;;;;10.07;4.10;;;;;;;;;;10238163;29;20039;-60
2023/10/05 16:19:17;;;;;;;8.25;4.53;;;;;;;;;;10239314;29;20045;-62
2023/10/05 16:24:18;;;;;;;9.25;3.67;;;;;;;;;;10272315;28;20046;-62
2023/10/05 16:29:19;;;;;;;14.15;4.07;;;;;;;;;;10324970;28;20040;-62
2023/10/05 16:34:20;;;;;;;15.10;4.20;;;;;;;;;;10324995;28;20033;-62
2023/10/05 16:39:21;;;;;;;10.93;4.57;;;;;;;;;;10326831;28;20036;-62
2023/10/05 16:44:22;;;;;;;7.05;4.20;;;;;;;;;;10328645;28;20157;-62
2023/10/05 16:49:23;;;;;;;6.05;3.08;;;;;;;;;;10328821;28;20034;-62
2023/10/05 16:54:24;;;;;;;14.48;3.95;;;;;;;;;;10321498;28;20026;-63
2023/10/05 16:59:24;;;;;;;9.80;3.88;;;;;;;;;;10328671;28;20037;-62
2023/10/05 17:04:26;;;;;;;7.30;3.63;;;;;;;;;;10328486;28;20030;-62
2023/10/05 17:09:28;;;;;;;5.13;3.72;;;;;;;;;;10327556;28;20065;-62
2023/10/05 17:14:29;;;;;;;6.35;3.80;;;;;;;;;;10328105;28;20046;-62
2023/10/05 17:19:29;;;;;;;7.00;3.60;;;;;;;;;;10327850;28;20474;-62
2023/10/05 17:24:30;;;;;;;6.75;3.80;;;;;;;;;;10342350;28;20031;-62
2023/10/05 17:29:31;;;;;;;6.20;3.50;;;;;;;;;;10327607;28;20081;-62
2023/10/05 17:34:32;;;;;;;6.93;3.78;;;;;;;;;;10327131;28;20077;-62
2023/10/05 17:39:32;;;;;;;9.45;4.22;;;;;;;;;;10326973;28;20029;-62
2023/10/05 17:44:33;;;;;;;6.90;3.40;;;;;;;;;;10326855;28;20033;-64
2023/10/05 17:49:34;;;;;;;7.15;3.70;;;;;;;;;;10327151;28;20026;-62
2023/10/05 17:54:36;;;;;;;8.10;4.22;;;;;;;;;;10322067;28;20474;-63
2023/10/05 17:59:37;;;;;;;7.32;3.58;;;;;;;;;;10326256;28;20069;-63
2023/10/05 18:04:38;;;;;;;7.10;3.97;;;;;;;;;;10322116;28;20050;-64
2023/10/05 18:09:39;;;;;;;6.05;3.65;;;;;;;;;;10325739;28;20034;-63
2023/10/05 18:14:40;;;;;;;6.10;3.78;;;;;;;;;;10323837;28;20433;-63
2023/10/05 18:19:41;;;;;;;11.30;4.20;;;;;;;;;;10325195;28;20112;-64
2023/10/05 18:24:41;;;;;;;6.75;3.90;;;;;;;;;;10326256;28;20031;-64
2023/10/05 18:29:42;;;;;;;7.20;3.80;;;;;;;;;;10322689;28;20550;-63
2023/10/05 18:34:43;;;;;;;7.20;4.07;;;;;;;;;;10325791;28;20033;-63
2023/10/05 18:39:43;;;;;;;8.18;3.83;;;;;;;;;;10325568;28;20467;-63
2023/10/05 18:44:46;;;;;;;8.93;3.50;;;;;;;;;;10325701;28;20068;-63
2023/10/05 18:49:46;;;;;;;6.70;3.38;;;;;;;;;;10325258;28;20030;-62
2023/10/05 18:54:47;;;;;;;9.05;3.22;;;;;;;;;;10325866;28;20026;-62
2023/10/05 18:59:48;;;;;;;10.95;3.22;;;;;;;;;;10325407;28;20028;-62
2023/10/05 19:04:49;;;;;;;6.45;3.78;;;;;;;;;;10317474;28;20030;-62
2023/10/05 19:09:50;;;;;;;6.45;3.58;;;;;;;;;;10331232;28;20022;-64
2023/10/05 19:14:50;;;;;;;15.57;3.67;;;;;;;;;;10330799;28;20130;-62
2023/10/05 19:19:51;;;;;;;10.02;3.72;;;;;;;;;;10332092;28;20026;-62
2023/10/05 19:24:52;;;;;;;14.40;3.88;;;;;;;;;;10329608;28;20080;-65
2023/10/05 19:29:53;;;;;;;7.32;3.30;;;;;;;;;;10331198;28;20109;-65
2023/10/05 19:34:54;;;;;;;9.70;3.88;;;;;;;;;;10332861;28;20026;-63
2023/10/05 19:39:56;;;;;;;9.90;4.35;;;;;;;;;;10331226;28;20049;-62
2023/10/05 19:44:56;;;;;;;6.35;3.22;;;;;;;;;;10332097;28;20042;-63
2023/10/05 19:49:57;;;;;;;7.50;3.35;;;;;;;;;;10331390;28;20534;-63
2023/10/05 19:54:58;;;;;;;11.07;4.20;;;;;;;;;;10329567;28;20030;-62
2023/10/05 19:59:59;;;;;;;5.90;3.22;;;;;;;;;;10330030;28;20026;-62
2023/10/05 20:04:59;;;;;;;7.15;3.78;;;;;;;;;;10326871;28;20027;-62
2023/10/05 20:10:00;;;;;;;8.18;3.45;;;;;;;;;;10328047;28;20034;-62
2023/10/05 20:15:01;;;;;;;7.97;3.72;;;;;;;;;;10324406;28;20049;-62
2023/10/05 20:20:11;;;;;;;9.15;3.88;;;;;;;;;;10328800;28;20038;-62
2023/10/05 20:25:12;;;;;;;8.38;3.80;;;;;;;;;;10329190;28;20529;-62
2023/10/05 20:30:13;;;;;;;7.78;4.25;;;;;;;;;;10329097;28;20114;-63
2023/10/05 20:35:14;;;;;;;12.63;4.03;;;;;;;;;;10328367;28;20439;-62
2023/10/05 20:40:15;;;;;;;10.85;4.07;;;;;;;;;;10327083;28;20311;-63
2023/10/05 20:45:16;;;;;;;6.10;3.80;;;;;;;;;;10327186;28;20027;-62
2023/10/05 20:50:16;;;;;;;13.85;4.13;;;;;;;;;;10326508;28;20486;-61
2023/10/05 20:55:17;;;;;;;10.07;4.72;;;;;;;;;;10328404;28;20034;-62
2023/10/05 21:00:18;;;;;;;11.45;3.92;;;;;;;;;;10328670;28;20112;-61
2023/10/05 21:05:18;;;;;;;6.93;4.40;;;;;;;;;;10327802;28;20069;-62
2023/10/05 21:10:19;;;;;;;10.80;3.85;;;;;;;;;;10327484;28;20034;-60
2023/10/05 21:15:20;;;;;;;10.27;4.38;;;;;;;;;;10325563;28;20109;-59
2023/10/05 21:20:22;;;;;;;9.55;4.75;;;;;;;;;;10326794;28;20038;-59
2023/10/05 21:25:23;;;;;;;6.10;4.40;;;;;;;;;;10324705;28;20097;-60
2023/10/05 21:30:23;;;;;;;10.10;4.72;;;;;;;;;;10327041;28;20030;-61
2023/10/05 21:35:24;;;;;;;12.30;5.38;;;;;;;;;;10327408;28;20030;-63
2023/10/05 21:40:24;;;;;;;11.35;4.90;;;;;;;;;;10327306;28;20022;-62
2023/10/05 21:45:26;;;;;;;14.07;5.80;;;;;;;;;;10326520;28;20106;-63
2023/10/05 21:50:27;;;;;;;8.18;4.93;;;;;;;;;;10327631;28;20041;-63
2023/10/05 21:55:28;;;;;;;11.43;5.63;;;;;;;;;;10327837;28;20049;-62
2023/10/05 22:01:14;;;;;;;18.15;5.22;;;;;;;;;;10326843;28;20470;-62
2023/10/05 22:05:50;;;;;;;13.77;5.25;;;;;;;;;;10326505;28;20050;-62
2023/10/05 22:10:51;;;;;;;11.50;5.22;;;;;;;;;;10326870;28;20065;-63
2023/10/05 22:15:51;;;;;;;10.43;5.47;;;;;;;;;;10326899;28;20026;-63
2023/10/05 22:20:52;;;;;;;10.45;5.28;;;;;;;;;;10326941;28;20019;-62
2023/10/05 22:25:52;;;;;;;9.35;5.60;;;;;;;;;;10320055;28;20038;-63
2023/10/05 22:30:53;;;;;;;8.25;5.15;;;;;;;;;;10327115;28;20543;-64
2023/10/05 22:35:53;;;;;;;11.60;5.32;;;;;;;;;;10326649;28;20470;-65
2023/10/05 22:40:54;;;;;;;13.38;5.68;;;;;;;;;;10328018;28;20513;-65
2023/10/05 22:45:55;;;;;;;10.57;5.50;;;;;;;;;;10335142;28;20359;-64
2023/10/05 22:50:55;;;;;;;8.82;5.43;;;;;;;;;;10334277;28;20031;-65
2023/10/05 22:55:56;;;;;;;8.60;5.20;;;;;;;;;;10334176;28;20026;-65
2023/10/05 23:00:56;;;;;;;12.82;5.47;;;;;;;;;;10333883;28;20014;-65
2023/10/05 23:05:57;;;;;;;11.18;5.75;;;;;;;;;;10334306;28;20037;-65
2023/10/05 23:10:59;;;;;;;9.43;5.97;;;;;;;;;;10332971;28;20057;-63
2023/10/05 23:16:00;;;;;;;9.90;5.55;;;;;;;;;;10333863;28;20030;-63
2023/10/05 23:21:01;;;;;;;9.23;5.85;;;;;;;;;;10333578;28;20037;-63
2023/10/05 23:26:03;;;;;;;9.73;5.88;;;;;;;;;;10329558;28;20274;-64
2023/10/05 23:31:11;;;;;;;11.50;6.35;;;;;;;;;;10332660;28;20026;-64
2023/10/05 23:36:15;;;;;;;10.60;5.80;;;;;;;;;;10329259;28;20134;-64
2023/10/05 23:41:15;;;;;;;10.27;6.03;;;;;;;;;;10332328;28;20471;-64
2023/10/05 23:46:16;;;;;;;9.05;6.03;;;;;;;;;;10332219;28;20030;-64
2023/10/05 23:51:20;;;;;;;11.38;6.25;;;;;;;;;;10332100;28;20026;-64
2023/10/05 23:56:25;;;;;;;15.77;7.45;;;;;;;;;;10330704;28;20418;-64
